Decoded Metar for UWGG (NIZHNY NOVGOROD in RUSSIA) (IATA:N/A) | Meteo·Mobile Aviation Weather
aviador You're here:

UWGG Decoded Metar

NIZHNY NOVGOROD in RUSSIA
Report Time2018-08-21 07:30:00
UTC Time2018-08-21 07:51:05
Flight Rules vfr VFR
Wind210° at 14 kt
W.Decomp.*RWY 18: 13.2 kt HW 4.6 kt RCW
W.Rank210° ranks 4
Current wind is above 210° avg. (5.8)
Visibility9999 m
Phenomena:N/A
Clouds:Few 033 Hf
Expected CloudBase > 3,600 ft AGL from Temp-Dew spread
CeilingNone
Temp25°C (ISA +10)
Dew Point16°C (57% RH)
AAT21.9°C
QNH1007 hPa
Density Alt1,900 ft
Elevation240 ft
Report Wrong Elevation
Raw Report
METAR UWGG 210730Z 21007MPS 9999 FEW033 25/16 Q1007 R18L/090070 NOSIG=

Extra information for UWGG:More info

Metar Taf Metar & Taf Last 4 Metars F.Rules Stats Wind Profile Meteogram Temp Stats Airport Information Weather charts Add Link Nearby VenuesMetar ALERT Operation Metar Decoded Social comments